sensor_id;sensor_type;location;lat;lon;timestamp;P1;durP1;ratioP1;P2;durP2;ratioP2
43042;SDS011;28667;50.758;6.096;2023-05-19T00:01:08;8.60;;;2.15;;
43042;SDS011;28667;50.758;6.096;2023-05-19T00:03:39;4.15;;;3.42;;
43042;SDS011;28667;50.758;6.096;2023-05-19T00:06:16;4.80;;;2.30;;
43042;SDS011;28667;50.758;6.096;2023-05-19T00:08:46;5.47;;;2.08;;
43042;SDS011;28667;50.758;6.096;2023-05-19T00:11:15;3.30;;;2.13;;
43042;SDS011;28667;50.758;6.096;2023-05-19T00:13:40;5.53;;;2.60;;
43042;SDS011;28667;50.758;6.096;2023-05-19T00:16:07;4.80;;;2.10;;
43042;SDS011;28667;50.758;6.096;2023-05-19T00:18:33;6.43;;;2.30;;
43042;SDS011;28667;50.758;6.096;2023-05-19T00:20:58;5.22;;;2.20;;
43042;SDS011;28667;50.758;6.096;2023-05-19T00:23:25;6.38;;;2.50;;
43042;SDS011;28667;50.758;6.096;2023-05-19T00:25:50;7.82;;;2.72;;
43042;SDS011;28667;50.758;6.096;2023-05-19T00:28:18;2.70;;;2.17;;
43042;SDS011;28667;50.758;6.096;2023-05-19T00:30:43;3.22;;;1.85;;
43042;SDS011;28667;50.758;6.096;2023-05-19T00:33:09;3.97;;;2.33;;
43042;SDS011;28667;50.758;6.096;2023-05-19T00:35:35;6.15;;;2.83;;
43042;SDS011;28667;50.758;6.096;2023-05-19T00:38:00;3.63;;;1.95;;
43042;SDS011;28667;50.758;6.096;2023-05-19T00:40:26;2.42;;;1.85;;
43042;SDS011;28667;50.758;6.096;2023-05-19T00:42:55;4.25;;;2.40;;
43042;SDS011;28667;50.758;6.096;2023-05-19T00:45:21;6.20;;;2.33;;
43042;SDS011;28667;50.758;6.096;2023-05-19T00:47:48;4.32;;;2.70;;
43042;SDS011;28667;50.758;6.096;2023-05-19T00:50:14;6.00;;;2.83;;
43042;SDS011;28667;50.758;6.096;2023-05-19T00:52:39;3.45;;;1.90;;
43042;SDS011;28667;50.758;6.096;2023-05-19T00:55:05;6.38;;;2.88;;
43042;SDS011;28667;50.758;6.096;2023-05-19T00:57:33;12.23;;;2.83;;
43042;SDS011;28667;50.758;6.096;2023-05-19T00:59:58;3.70;;;2.35;;
43042;SDS011;28667;50.758;6.096;2023-05-19T01:02:25;5.28;;;2.00;;
43042;SDS011;28667;50.758;6.096;2023-05-19T01:04:53;3.03;;;2.05;;
43042;SDS011;28667;50.758;6.096;2023-05-19T01:07:21;6.18;;;2.22;;
43042;SDS011;28667;50.758;6.096;2023-05-19T01:09:47;6.30;;;2.30;;
43042;SDS011;28667;50.758;6.096;2023-05-19T01:12:14;3.22;;;2.10;;
43042;SDS011;28667;50.758;6.096;2023-05-19T01:14:40;2.50;;;2.30;;
43042;SDS011;28667;50.758;6.096;2023-05-19T01:17:18;3.90;;;2.03;;
43042;SDS011;28667;50.758;6.096;2023-05-19T01:20:50;3.65;;;2.00;;
43042;SDS011;28667;50.758;6.096;2023-05-19T01:31:15;6.47;;;2.53;;
43042;SDS011;28667;50.758;6.096;2023-05-19T01:33:44;2.63;;;2.17;;
43042;SDS011;28667;50.758;6.096;2023-05-19T01:36:13;2.40;;;2.15;;
43042;SDS011;28667;50.758;6.096;2023-05-19T01:38:39;4.78;;;2.35;;
43042;SDS011;28667;50.758;6.096;2023-05-19T01:41:06;8.00;;;2.38;;
43042;SDS011;28667;50.758;6.096;2023-05-19T01:43:33;5.72;;;2.72;;
43042;SDS011;28667;50.758;6.096;2023-05-19T01:46:00;3.40;;;2.40;;
43042;SDS011;28667;50.758;6.096;2023-05-19T01:48:26;5.63;;;2.42;;
43042;SDS011;28667;50.758;6.096;2023-05-19T01:50:55;2.92;;;2.30;;
43042;SDS011;28667;50.758;6.096;2023-05-19T01:53:22;3.42;;;2.00;;
43042;SDS011;28667;50.758;6.096;2023-05-19T01:55:50;2.97;;;2.10;;
43042;SDS011;28667;50.758;6.096;2023-05-19T02:10:18;5.70;;;2.47;;
43042;SDS011;28667;50.758;6.096;2023-05-19T02:12:38;5.70;;;2.33;;
43042;SDS011;28667;50.758;6.096;2023-05-19T02:17:41;6.35;;;2.25;;
43042;SDS011;28667;50.758;6.096;2023-05-19T02:20:16;2.90;;;2.05;;
43042;SDS011;28667;50.758;6.096;2023-05-19T02:22:42;3.72;;;2.15;;
43042;SDS011;28667;50.758;6.096;2023-05-19T02:25:09;4.53;;;2.28;;
43042;SDS011;28667;50.758;6.096;2023-05-19T02:27:35;5.03;;;2.20;;
43042;SDS011;28667;50.758;6.096;2023-05-19T02:30:03;5.15;;;2.45;;
43042;SDS011;28667;50.758;6.096;2023-05-19T02:32:30;3.88;;;2.60;;
43042;SDS011;28667;50.758;6.096;2023-05-19T02:34:57;4.63;;;2.58;;
43042;SDS011;28667;50.758;6.096;2023-05-19T02:37:22;4.07;;;2.75;;
43042;SDS011;28667;50.758;6.096;2023-05-19T02:39:49;5.65;;;3.30;;
43042;SDS011;28667;50.758;6.096;2023-05-19T02:42:16;4.43;;;2.53;;
43042;SDS011;28667;50.758;6.096;2023-05-19T02:44:42;4.28;;;2.58;;
43042;SDS011;28667;50.758;6.096;2023-05-19T02:47:08;6.78;;;2.95;;
43042;SDS011;28667;50.758;6.096;2023-05-19T02:49:34;6.35;;;2.33;;
43042;SDS011;28667;50.758;6.096;2023-05-19T02:52:02;4.68;;;2.92;;
43042;SDS011;28667;50.758;6.096;2023-05-19T02:54:29;3.15;;;2.20;;
43042;SDS011;28667;50.758;6.096;2023-05-19T02:56:55;5.43;;;2.83;;
43042;SDS011;28667;50.758;6.096;2023-05-19T02:59:21;4.85;;;2.72;;
43042;SDS011;28667;50.758;6.096;2023-05-19T03:01:48;6.32;;;2.45;;
43042;SDS011;28667;50.758;6.096;2023-05-19T03:04:15;3.55;;;3.05;;
43042;SDS011;28667;50.758;6.096;2023-05-19T03:06:44;4.40;;;2.20;;
43042;SDS011;28667;50.758;6.096;2023-05-19T03:09:11;4.53;;;2.47;;
43042;SDS011;28667;50.758;6.096;2023-05-19T03:11:38;9.55;;;2.63;;
43042;SDS011;28667;50.758;6.096;2023-05-19T03:14:03;4.00;;;2.22;;
43042;SDS011;28667;50.758;6.096;2023-05-19T03:16:29;6.07;;;2.95;;
43042;SDS011;28667;50.758;6.096;2023-05-19T03:18:55;5.25;;;2.50;;
43042;SDS011;28667;50.758;6.096;2023-05-19T03:21:21;7.68;;;3.38;;
43042;SDS011;28667;50.758;6.096;2023-05-19T03:23:47;5.38;;;2.65;;
43042;SDS011;28667;50.758;6.096;2023-05-19T03:26:13;5.70;;;2.97;;
43042;SDS011;28667;50.758;6.096;2023-05-19T03:28:38;4.10;;;2.28;;
43042;SDS011;28667;50.758;6.096;2023-05-19T03:31:04;5.43;;;1.95;;
43042;SDS011;28667;50.758;6.096;2023-05-19T03:33:35;3.42;;;2.33;;
43042;SDS011;28667;50.758;6.096;2023-05-19T03:36:01;7.13;;;2.92;;
43042;SDS011;28667;50.758;6.096;2023-05-19T03:38:32;3.70;;;2.63;;
43042;SDS011;28667;50.758;6.096;2023-05-19T03:40:58;4.90;;;2.40;;
43042;SDS011;28667;50.758;6.096;2023-05-19T03:43:24;3.33;;;2.28;;
43042;SDS011;28667;50.758;6.096;2023-05-19T03:45:55;4.72;;;1.75;;
43042;SDS011;28667;50.758;6.096;2023-05-19T03:48:44;6.72;;;2.45;;
43042;SDS011;28667;50.758;6.096;2023-05-19T03:51:19;9.30;;;3.67;;
43042;SDS011;28667;50.758;6.096;2023-05-19T03:53:47;5.78;;;2.38;;
43042;SDS011;28667;50.758;6.096;2023-05-19T03:56:13;7.43;;;2.80;;
43042;SDS011;28667;50.758;6.096;2023-05-19T03:58:40;6.40;;;2.80;;
43042;SDS011;28667;50.758;6.096;2023-05-19T04:01:09;7.28;;;2.88;;
43042;SDS011;28667;50.758;6.096;2023-05-19T04:03:35;11.23;;;3.25;;
43042;SDS011;28667;50.758;6.096;2023-05-19T04:06:01;9.65;;;2.78;;
43042;SDS011;28667;50.758;6.096;2023-05-19T04:08:27;2.97;;;2.60;;
43042;SDS011;28667;50.758;6.096;2023-05-19T04:10:52;9.70;;;2.67;;
43042;SDS011;28667;50.758;6.096;2023-05-19T04:13:18;4.63;;;2.80;;
43042;SDS011;28667;50.758;6.096;2023-05-19T04:15:45;6.05;;;2.53;;
43042;SDS011;28667;50.758;6.096;2023-05-19T04:18:11;3.97;;;2.80;;
43042;SDS011;28667;50.758;6.096;2023-05-19T04:20:38;6.05;;;3.08;;
43042;SDS011;28667;50.758;6.096;2023-05-19T04:23:04;5.18;;;3.10;;
43042;SDS011;28667;50.758;6.096;2023-05-19T04:25:30;5.05;;;2.40;;
43042;SDS011;28667;50.758;6.096;2023-05-19T04:27:57;9.20;;;2.67;;
43042;SDS011;28667;50.758;6.096;2023-05-19T04:30:25;6.00;;;2.78;;
43042;SDS011;28667;50.758;6.096;2023-05-19T04:32:51;4.75;;;2.80;;
43042;SDS011;28667;50.758;6.096;2023-05-19T04:35:17;6.45;;;3.13;;
43042;SDS011;28667;50.758;6.096;2023-05-19T04:37:44;3.45;;;2.17;;
43042;SDS011;28667;50.758;6.096;2023-05-19T04:40:11;5.30;;;2.65;;
43042;SDS011;28667;50.758;6.096;2023-05-19T04:42:39;3.83;;;2.80;;
43042;SDS011;28667;50.758;6.096;2023-05-19T04:45:11;5.07;;;3.15;;
43042;SDS011;28667;50.758;6.096;2023-05-19T04:47:41;5.25;;;2.15;;
43042;SDS011;28667;50.758;6.096;2023-05-19T04:50:07;5.65;;;2.08;;
43042;SDS011;28667;50.758;6.096;2023-05-19T04:52:35;4.30;;;2.38;;
43042;SDS011;28667;50.758;6.096;2023-05-19T04:55:03;5.88;;;2.33;;
43042;SDS011;28667;50.758;6.096;2023-05-19T04:57:29;2.35;;;1.92;;
43042;SDS011;28667;50.758;6.096;2023-05-19T04:59:55;5.90;;;2.30;;
43042;SDS011;28667;50.758;6.096;2023-05-19T05:02:25;3.95;;;2.20;;
43042;SDS011;28667;50.758;6.096;2023-05-19T05:04:52;4.63;;;2.17;;
43042;SDS011;28667;50.758;6.096;2023-05-19T05:07:22;4.47;;;2.38;;
43042;SDS011;28667;50.758;6.096;2023-05-19T05:09:50;4.75;;;2.65;;
43042;SDS011;28667;50.758;6.096;2023-05-19T05:12:20;2.53;;;2.00;;
43042;SDS011;28667;50.758;6.096;2023-05-19T05:14:47;2.95;;;2.25;;
43042;SDS011;28667;50.758;6.096;2023-05-19T05:17:13;2.75;;;2.20;;
43042;SDS011;28667;50.758;6.096;2023-05-19T05:19:40;4.22;;;2.17;;
43042;SDS011;28667;50.758;6.096;2023-05-19T05:22:06;3.65;;;2.40;;
43042;SDS011;28667;50.758;6.096;2023-05-19T05:24:35;6.00;;;2.17;;
43042;SDS011;28667;50.758;6.096;2023-05-19T05:27:02;6.60;;;3.53;;
43042;SDS011;28667;50.758;6.096;2023-05-19T05:29:30;4.47;;;2.38;;
43042;SDS011;28667;50.758;6.096;2023-05-19T05:31:56;2.58;;;2.05;;
43042;SDS011;28667;50.758;6.096;2023-05-19T05:34:22;2.97;;;2.58;;
43042;SDS011;28667;50.758;6.096;2023-05-19T05:36:48;8.23;;;3.63;;
43042;SDS011;28667;50.758;6.096;2023-05-19T05:39:15;7.22;;;3.30;;
43042;SDS011;28667;50.758;6.096;2023-05-19T05:41:43;7.90;;;3.63;;
43042;SDS011;28667;50.758;6.096;2023-05-19T05:44:10;4.57;;;2.90;;
43042;SDS011;28667;50.758;6.096;2023-05-19T05:46:38;2.08;;;1.92;;
43042;SDS011;28667;50.758;6.096;2023-05-19T05:49:05;5.55;;;3.85;;
43042;SDS011;28667;50.758;6.096;2023-05-19T05:51:31;5.10;;;3.25;;
43042;SDS011;28667;50.758;6.096;2023-05-19T05:53:58;4.28;;;2.58;;
43042;SDS011;28667;50.758;6.096;2023-05-19T05:56:33;3.97;;;2.72;;
43042;SDS011;28667;50.758;6.096;2023-05-19T05:59:02;4.45;;;3.40;;
43042;SDS011;28667;50.758;6.096;2023-05-19T06:01:27;8.57;;;3.80;;
43042;SDS011;28667;50.758;6.096;2023-05-19T06:03:55;5.07;;;3.08;;
43042;SDS011;28667;50.758;6.096;2023-05-19T06:06:22;3.40;;;2.97;;
43042;SDS011;28667;50.758;6.096;2023-05-19T06:08:50;3.45;;;2.97;;
43042;SDS011;28667;50.758;6.096;2023-05-19T06:11:16;8.40;;;3.42;;
43042;SDS011;28667;50.758;6.096;2023-05-19T06:13:43;5.32;;;2.92;;
43042;SDS011;28667;50.758;6.096;2023-05-19T06:16:16;4.10;;;3.25;;
43042;SDS011;28667;50.758;6.096;2023-05-19T06:18:45;3.80;;;3.13;;
43042;SDS011;28667;50.758;6.096;2023-05-19T06:21:11;3.70;;;2.85;;
43042;SDS011;28667;50.758;6.096;2023-05-19T06:23:39;4.13;;;2.90;;
43042;SDS011;28667;50.758;6.096;2023-05-19T06:26:07;4.97;;;2.83;;
43042;SDS011;28667;50.758;6.096;2023-05-19T06:28:32;3.63;;;2.80;;
43042;SDS011;28667;50.758;6.096;2023-05-19T06:30:58;3.38;;;2.60;;
43042;SDS011;28667;50.758;6.096;2023-05-19T06:34:00;5.15;;;3.22;;
43042;SDS011;28667;50.758;6.096;2023-05-19T06:36:27;4.50;;;2.70;;
43042;SDS011;28667;50.758;6.096;2023-05-19T06:38:55;5.40;;;2.92;;
43042;SDS011;28667;50.758;6.096;2023-05-19T06:41:21;7.22;;;3.72;;
43042;SDS011;28667;50.758;6.096;2023-05-19T06:43:49;7.47;;;3.33;;
43042;SDS011;28667;50.758;6.096;2023-05-19T06:46:17;5.65;;;2.63;;
43042;SDS011;28667;50.758;6.096;2023-05-19T06:48:43;6.45;;;2.78;;
43042;SDS011;28667;50.758;6.096;2023-05-19T06:51:09;5.47;;;2.42;;
43042;SDS011;28667;50.758;6.096;2023-05-19T06:53:38;8.32;;;2.58;;
43042;SDS011;28667;50.758;6.096;2023-05-19T06:56:07;5.32;;;3.60;;
43042;SDS011;28667;50.758;6.096;2023-05-19T06:58:35;4.50;;;2.70;;
43042;SDS011;28667;50.758;6.096;2023-05-19T07:01:03;4.47;;;1.98;;
43042;SDS011;28667;50.758;6.096;2023-05-19T07:03:34;2.67;;;1.67;;
43042;SDS011;28667;50.758;6.096;2023-05-19T07:06:00;5.05;;;2.20;;
43042;SDS011;28667;50.758;6.096;2023-05-19T07:08:27;5.68;;;2.53;;
43042;SDS011;28667;50.758;6.096;2023-05-19T07:10:53;7.00;;;2.95;;
43042;SDS011;28667;50.758;6.096;2023-05-19T07:13:21;5.20;;;1.67;;
43042;SDS011;28667;50.758;6.096;2023-05-19T07:15:47;3.67;;;2.38;;
43042;SDS011;28667;50.758;6.096;2023-05-19T07:18:15;2.95;;;1.60;;
43042;SDS011;28667;50.758;6.096;2023-05-19T07:20:41;3.60;;;1.73;;
43042;SDS011;28667;50.758;6.096;2023-05-19T07:23:06;4.57;;;2.30;;
43042;SDS011;28667;50.758;6.096;2023-05-19T07:25:33;1.75;;;1.30;;
43042;SDS011;28667;50.758;6.096;2023-05-19T07:27:59;3.45;;;1.60;;
43042;SDS011;28667;50.758;6.096;2023-05-19T07:30:26;4.10;;;1.67;;
43042;SDS011;28667;50.758;6.096;2023-05-19T07:32:52;5.75;;;1.85;;
43042;SDS011;28667;50.758;6.096;2023-05-19T07:35:18;3.92;;;2.20;;
43042;SDS011;28667;50.758;6.096;2023-05-19T07:37:46;2.83;;;1.35;;
43042;SDS011;28667;50.758;6.096;2023-05-19T07:40:13;2.83;;;1.42;;
43042;SDS011;28667;50.758;6.096;2023-05-19T07:42:39;6.03;;;1.75;;
43042;SDS011;28667;50.758;6.096;2023-05-19T07:45:05;4.80;;;1.30;;
43042;SDS011;28667;50.758;6.096;2023-05-19T07:47:31;4.63;;;1.40;;
43042;SDS011;28667;50.758;6.096;2023-05-19T07:49:57;4.93;;;1.60;;
43042;SDS011;28667;50.758;6.096;2023-05-19T07:52:23;7.30;;;2.45;;
43042;SDS011;28667;50.758;6.096;2023-05-19T07:54:49;1.63;;;1.25;;
43042;SDS011;28667;50.758;6.096;2023-05-19T07:57:14;2.92;;;1.20;;
43042;SDS011;28667;50.758;6.096;2023-05-19T07:59:40;1.98;;;1.27;;
43042;SDS011;28667;50.758;6.096;2023-05-19T08:02:06;6.35;;;1.95;;
43042;SDS011;28667;50.758;6.096;2023-05-19T08:04:32;3.63;;;1.38;;
43042;SDS011;28667;50.758;6.096;2023-05-19T08:06:57;5.55;;;2.20;;
43042;SDS011;28667;50.758;6.096;2023-05-19T08:09:23;7.32;;;1.75;;
43042;SDS011;28667;50.758;6.096;2023-05-19T08:11:49;7.35;;;2.67;;
43042;SDS011;28667;50.758;6.096;2023-05-19T08:14:15;3.58;;;1.58;;
43042;SDS011;28667;50.758;6.096;2023-05-19T08:16:41;6.80;;;1.95;;
43042;SDS011;28667;50.758;6.096;2023-05-19T08:19:08;8.07;;;2.22;;
43042;SDS011;28667;50.758;6.096;2023-05-19T08:21:34;3.97;;;1.55;;
43042;SDS011;28667;50.758;6.096;2023-05-19T08:24:00;3.72;;;2.10;;
43042;SDS011;28667;50.758;6.096;2023-05-19T08:26:26;4.68;;;1.90;;
43042;SDS011;28667;50.758;6.096;2023-05-19T08:28:52;3.28;;;1.98;;
43042;SDS011;28667;50.758;6.096;2023-05-19T08:31:18;3.90;;;1.80;;
43042;SDS011;28667;50.758;6.096;2023-05-19T08:33:44;3.33;;;1.50;;
43042;SDS011;28667;50.758;6.096;2023-05-19T08:36:10;3.13;;;2.00;;
43042;SDS011;28667;50.758;6.096;2023-05-19T08:38:36;4.82;;;2.30;;
43042;SDS011;28667;50.758;6.096;2023-05-19T08:41:02;9.10;;;1.65;;
43042;SDS011;28667;50.758;6.096;2023-05-19T08:43:28;6.55;;;2.13;;
43042;SDS011;28667;50.758;6.096;2023-05-19T08:45:53;3.05;;;1.48;;
43042;SDS011;28667;50.758;6.096;2023-05-19T08:48:20;2.75;;;1.73;;
43042;SDS011;28667;50.758;6.096;2023-05-19T08:51:30;4.28;;;1.48;;
43042;SDS011;28667;50.758;6.096;2023-05-19T08:53:39;5.35;;;1.65;;
43042;SDS011;28667;50.758;6.096;2023-05-19T08:56:13;2.75;;;1.42;;
43042;SDS011;28667;50.758;6.096;2023-05-19T08:58:40;3.53;;;2.08;;
43042;SDS011;28667;50.758;6.096;2023-05-19T09:01:14;3.40;;;1.52;;
43042;SDS011;28667;50.758;6.096;2023-05-19T09:06:09;7.90;;;2.42;;
43042;SDS011;28667;50.758;6.096;2023-05-19T09:08:38;4.35;;;2.25;;
43042;SDS011;28667;50.758;6.096;2023-05-19T09:11:05;3.80;;;1.58;;
43042;SDS011;28667;50.758;6.096;2023-05-19T09:13:31;6.18;;;1.55;;
43042;SDS011;28667;50.758;6.096;2023-05-19T09:15:57;1.23;;;1.10;;
43042;SDS011;28667;50.758;6.096;2023-05-19T09:18:24;5.55;;;1.27;;
43042;SDS011;28667;50.758;6.096;2023-05-19T09:20:52;4.55;;;1.75;;
43042;SDS011;28667;50.758;6.096;2023-05-19T09:23:28;2.67;;;1.08;;
43042;SDS011;28667;50.758;6.096;2023-05-19T09:25:56;4.38;;;1.52;;
43042;SDS011;28667;50.758;6.096;2023-05-19T09:28:33;2.13;;;1.40;;
43042;SDS011;28667;50.758;6.096;2023-05-19T09:31:04;3.08;;;1.33;;
43042;SDS011;28667;50.758;6.096;2023-05-19T09:33:34;4.88;;;1.60;;
43042;SDS011;28667;50.758;6.096;2023-05-19T09:36:06;1.80;;;1.60;;
43042;SDS011;28667;50.758;6.096;2023-05-19T09:38:33;4.22;;;1.35;;
43042;SDS011;28667;50.758;6.096;2023-05-19T09:41:00;5.75;;;2.80;;
43042;SDS011;28667;50.758;6.096;2023-05-19T09:43:27;4.22;;;1.80;;
43042;SDS011;28667;50.758;6.096;2023-05-19T09:45:54;2.65;;;1.25;;
43042;SDS011;28667;50.758;6.096;2023-05-19T09:48:30;4.80;;;1.45;;
43042;SDS011;28667;50.758;6.096;2023-05-19T09:50:56;2.38;;;1.30;;
43042;SDS011;28667;50.758;6.096;2023-05-19T09:53:22;3.92;;;1.58;;
43042;SDS011;28667;50.758;6.096;2023-05-19T09:55:49;4.35;;;1.30;;
43042;SDS011;28667;50.758;6.096;2023-05-19T09:58:20;3.40;;;1.90;;
43042;SDS011;28667;50.758;6.096;2023-05-19T10:00:48;3.13;;;1.30;;
43042;SDS011;28667;50.758;6.096;2023-05-19T10:03:15;4.60;;;1.90;;
43042;SDS011;28667;50.758;6.096;2023-05-19T10:05:43;2.60;;;1.50;;
43042;SDS011;28667;50.758;6.096;2023-05-19T10:08:09;7.35;;;1.80;;
43042;SDS011;28667;50.758;6.096;2023-05-19T10:10:36;1.67;;;1.20;;
43042;SDS011;28667;50.758;6.096;2023-05-19T10:13:02;3.55;;;1.63;;
43042;SDS011;28667;50.758;6.096;2023-05-19T10:15:29;3.63;;;1.20;;
43042;SDS011;28667;50.758;6.096;2023-05-19T10:17:55;4.30;;;1.30;;
43042;SDS011;28667;50.758;6.096;2023-05-19T10:20:21;4.72;;;1.80;;
43042;SDS011;28667;50.758;6.096;2023-05-19T10:22:47;3.72;;;1.30;;
43042;SDS011;28667;50.758;6.096;2023-05-19T10:25:13;4.65;;;1.42;;
43042;SDS011;28667;50.758;6.096;2023-05-19T10:27:41;3.58;;;1.40;;
43042;SDS011;28667;50.758;6.096;2023-05-19T10:30:20;2.72;;;1.27;;
43042;SDS011;28667;50.758;6.096;2023-05-19T10:32:51;2.40;;;1.00;;
43042;SDS011;28667;50.758;6.096;2023-05-19T10:46:00;5.78;;;1.50;;
43042;SDS011;28667;50.758;6.096;2023-05-19T10:48:26;4.82;;;1.30;;
43042;SDS011;28667;50.758;6.096;2023-05-19T10:50:58;3.05;;;1.52;;
43042;SDS011;28667;50.758;6.096;2023-05-19T10:53:29;10.15;;;1.58;;
43042;SDS011;28667;50.758;6.096;2023-05-19T10:55:56;8.20;;;1.95;;
43042;SDS011;28667;50.758;6.096;2023-05-19T10:58:47;2.38;;;1.02;;
43042;SDS011;28667;50.758;6.096;2023-05-19T11:01:14;6.18;;;1.20;;
43042;SDS011;28667;50.758;6.096;2023-05-19T11:06:30;3.08;;;1.33;;
43042;SDS011;28667;50.758;6.096;2023-05-19T11:09:19;4.78;;;1.92;;
43042;SDS011;28667;50.758;6.096;2023-05-19T11:11:48;3.10;;;1.20;;
43042;SDS011;28667;50.758;6.096;2023-05-19T11:14:19;2.40;;;1.10;;
43042;SDS011;28667;50.758;6.096;2023-05-19T11:16:51;2.42;;;1.38;;
43042;SDS011;28667;50.758;6.096;2023-05-19T11:21:52;2.38;;;1.02;;
43042;SDS011;28667;50.758;6.096;2023-05-19T11:30:00;6.05;;;1.40;;
43042;SDS011;28667;50.758;6.096;2023-05-19T11:32:39;5.32;;;1.27;;
43042;SDS011;28667;50.758;6.096;2023-05-19T11:35:08;3.90;;;1.50;;
43042;SDS011;28667;50.758;6.096;2023-05-19T11:37:35;3.67;;;1.38;;
43042;SDS011;28667;50.758;6.096;2023-05-19T11:40:01;2.08;;;1.05;;
43042;SDS011;28667;50.758;6.096;2023-05-19T11:42:31;1.77;;;1.10;;
43042;SDS011;28667;50.758;6.096;2023-05-19T11:44:58;6.32;;;1.83;;
43042;SDS011;28667;50.758;6.096;2023-05-19T11:47:25;2.83;;;1.23;;
43042;SDS011;28667;50.758;6.096;2023-05-19T11:49:53;1.85;;;1.00;;
43042;SDS011;28667;50.758;6.096;2023-05-19T11:52:21;1.83;;;1.27;;
43042;SDS011;28667;50.758;6.096;2023-05-19T11:54:47;3.90;;;1.23;;
43042;SDS011;28667;50.758;6.096;2023-05-19T11:57:13;1.95;;;1.60;;
43042;SDS011;28667;50.758;6.096;2023-05-19T11:59:39;3.35;;;1.45;;
43042;SDS011;28667;50.758;6.096;2023-05-19T12:04:41;2.05;;;1.05;;
43042;SDS011;28667;50.758;6.096;2023-05-19T12:07:07;4.78;;;1.40;;
43042;SDS011;28667;50.758;6.096;2023-05-19T12:09:34;4.35;;;1.50;;
43042;SDS011;28667;50.758;6.096;2023-05-19T12:12:01;7.10;;;2.08;;
43042;SDS011;28667;50.758;6.096;2023-05-19T12:14:28;2.22;;;1.38;;
43042;SDS011;28667;50.758;6.096;2023-05-19T12:16:55;4.72;;;1.35;;
43042;SDS011;28667;50.758;6.096;2023-05-19T12:19:23;3.47;;;1.55;;
43042;SDS011;28667;50.758;6.096;2023-05-19T12:21:53;2.08;;;1.25;;
43042;SDS011;28667;50.758;6.096;2023-05-19T12:24:19;2.38;;;0.88;;
43042;SDS011;28667;50.758;6.096;2023-05-19T12:26:46;4.05;;;1.33;;
43042;SDS011;28667;50.758;6.096;2023-05-19T12:29:14;3.72;;;1.67;;
43042;SDS011;28667;50.758;6.096;2023-05-19T12:31:40;6.13;;;1.52;;
43042;SDS011;28667;50.758;6.096;2023-05-19T12:34:05;1.88;;;1.17;;
43042;SDS011;28667;50.758;6.096;2023-05-19T12:36:31;2.00;;;1.40;;
43042;SDS011;28667;50.758;6.096;2023-05-19T12:38:57;5.72;;;2.17;;
43042;SDS011;28667;50.758;6.096;2023-05-19T12:41:23;2.97;;;1.65;;
43042;SDS011;28667;50.758;6.096;2023-05-19T12:43:53;5.43;;;1.50;;
43042;SDS011;28667;50.758;6.096;2023-05-19T12:46:19;3.03;;;1.45;;
43042;SDS011;28667;50.758;6.096;2023-05-19T12:48:46;1.55;;;1.38;;
43042;SDS011;28667;50.758;6.096;2023-05-19T12:51:16;6.80;;;2.05;;
43042;SDS011;28667;50.758;6.096;2023-05-19T12:53:45;5.28;;;1.40;;
43042;SDS011;28667;50.758;6.096;2023-05-19T12:56:14;4.72;;;1.23;;
43042;SDS011;28667;50.758;6.096;2023-05-19T12:58:41;2.63;;;1.25;;
43042;SDS011;28667;50.758;6.096;2023-05-19T13:01:14;2.90;;;1.10;;
43042;SDS011;28667;50.758;6.096;2023-05-19T13:03:43;2.95;;;1.20;;
43042;SDS011;28667;50.758;6.096;2023-05-19T13:06:08;1.83;;;0.95;;
43042;SDS011;28667;50.758;6.096;2023-05-19T13:08:36;6.32;;;1.65;;
43042;SDS011;28667;50.758;6.096;2023-05-19T13:11:03;3.45;;;1.42;;
43042;SDS011;28667;50.758;6.096;2023-05-19T13:13:29;2.88;;;1.13;;
43042;SDS011;28667;50.758;6.096;2023-05-19T13:15:55;3.00;;;1.27;;
43042;SDS011;28667;50.758;6.096;2023-05-19T13:18:20;3.30;;;1.17;;
43042;SDS011;28667;50.758;6.096;2023-05-19T13:20:46;2.55;;;1.25;;
43042;SDS011;28667;50.758;6.096;2023-05-19T13:23:17;2.17;;;1.20;;
43042;SDS011;28667;50.758;6.096;2023-05-19T13:25:43;2.20;;;1.20;;
43042;SDS011;28667;50.758;6.096;2023-05-19T13:28:09;3.00;;;1.33;;
43042;SDS011;28667;50.758;6.096;2023-05-19T13:30:36;7.20;;;1.95;;
43042;SDS011;28667;50.758;6.096;2023-05-19T13:33:03;2.20;;;1.25;;
43042;SDS011;28667;50.758;6.096;2023-05-19T13:35:29;6.57;;;1.65;;
43042;SDS011;28667;50.758;6.096;2023-05-19T13:38:07;4.38;;;1.27;;
43042;SDS011;28667;50.758;6.096;2023-05-19T13:40:34;2.80;;;1.38;;
43042;SDS011;28667;50.758;6.096;2023-05-19T13:43:00;4.10;;;1.60;;
43042;SDS011;28667;50.758;6.096;2023-05-19T13:45:27;5.20;;;1.70;;
43042;SDS011;28667;50.758;6.096;2023-05-19T13:47:53;1.85;;;1.02;;
43042;SDS011;28667;50.758;6.096;2023-05-19T13:50:19;5.57;;;1.60;;
43042;SDS011;28667;50.758;6.096;2023-05-19T13:52:44;5.30;;;1.35;;
43042;SDS011;28667;50.758;6.096;2023-05-19T13:55:10;3.20;;;0.95;;
43042;SDS011;28667;50.758;6.096;2023-05-19T13:57:36;4.88;;;1.40;;
43042;SDS011;28667;50.758;6.096;2023-05-19T14:00:02;2.05;;;1.10;;
43042;SDS011;28667;50.758;6.096;2023-05-19T14:02:38;2.00;;;1.48;;
43042;SDS011;28667;50.758;6.096;2023-05-19T14:05:04;3.97;;;1.13;;
43042;SDS011;28667;50.758;6.096;2023-05-19T14:07:31;5.18;;;1.40;;
43042;SDS011;28667;50.758;6.096;2023-05-19T14:09:58;1.95;;;1.40;;
43042;SDS011;28667;50.758;6.096;2023-05-19T14:12:24;3.33;;;1.25;;
43042;SDS011;28667;50.758;6.096;2023-05-19T14:14:50;1.63;;;0.80;;
43042;SDS011;28667;50.758;6.096;2023-05-19T14:17:16;5.05;;;1.08;;
43042;SDS011;28667;50.758;6.096;2023-05-19T14:19:42;2.42;;;1.33;;
43042;SDS011;28667;50.758;6.096;2023-05-19T14:22:08;4.15;;;1.00;;
43042;SDS011;28667;50.758;6.096;2023-05-19T14:24:33;2.67;;;1.10;;
43042;SDS011;28667;50.758;6.096;2023-05-19T14:26:59;7.35;;;1.45;;
43042;SDS011;28667;50.758;6.096;2023-05-19T14:29:25;6.40;;;0.90;;
43042;SDS011;28667;50.758;6.096;2023-05-19T14:31:52;1.58;;;0.90;;
43042;SDS011;28667;50.758;6.096;2023-05-19T14:34:17;3.70;;;1.15;;
43042;SDS011;28667;50.758;6.096;2023-05-19T14:36:45;1.85;;;1.00;;
43042;SDS011;28667;50.758;6.096;2023-05-19T14:39:11;2.33;;;1.25;;
43042;SDS011;28667;50.758;6.096;2023-05-19T14:41:37;5.85;;;1.15;;
43042;SDS011;28667;50.758;6.096;2023-05-19T14:44:02;3.83;;;1.38;;
43042;SDS011;28667;50.758;6.096;2023-05-19T14:46:29;1.92;;;1.17;;
43042;SDS011;28667;50.758;6.096;2023-05-19T14:48:54;6.22;;;1.23;;
43042;SDS011;28667;50.758;6.096;2023-05-19T14:51:20;2.35;;;1.42;;
43042;SDS011;28667;50.758;6.096;2023-05-19T14:53:46;1.20;;;1.02;;
43042;SDS011;28667;50.758;6.096;2023-05-19T14:56:14;3.50;;;1.35;;
43042;SDS011;28667;50.758;6.096;2023-05-19T14:58:40;4.90;;;1.42;;
43042;SDS011;28667;50.758;6.096;2023-05-19T15:01:05;4.95;;;1.45;;
43042;SDS011;28667;50.758;6.096;2023-05-19T15:03:31;3.22;;;1.35;;
43042;SDS011;28667;50.758;6.096;2023-05-19T15:05:57;4.75;;;1.42;;
43042;SDS011;28667;50.758;6.096;2023-05-19T15:08:23;2.35;;;0.80;;
43042;SDS011;28667;50.758;6.096;2023-05-19T15:10:48;5.03;;;1.33;;
43042;SDS011;28667;50.758;6.096;2023-05-19T15:13:14;5.55;;;1.65;;
43042;SDS011;28667;50.758;6.096;2023-05-19T15:15:43;1.38;;;1.25;;
43042;SDS011;28667;50.758;6.096;2023-05-19T15:18:09;3.58;;;1.92;;
43042;SDS011;28667;50.758;6.096;2023-05-19T15:20:37;3.47;;;1.38;;
43042;SDS011;28667;50.758;6.096;2023-05-19T15:23:02;4.88;;;1.55;;
43042;SDS011;28667;50.758;6.096;2023-05-19T15:25:28;2.10;;;1.30;;
43042;SDS011;28667;50.758;6.096;2023-05-19T15:27:54;3.97;;;1.10;;
43042;SDS011;28667;50.758;6.096;2023-05-19T15:30:20;6.82;;;1.10;;
43042;SDS011;28667;50.758;6.096;2023-05-19T15:32:46;2.38;;;1.20;;
43042;SDS011;28667;50.758;6.096;2023-05-19T15:35:11;2.35;;;1.42;;
43042;SDS011;28667;50.758;6.096;2023-05-19T15:37:37;3.05;;;1.70;;
43042;SDS011;28667;50.758;6.096;2023-05-19T15:40:03;6.20;;;1.63;;